sensor_id;sensor_type;location;lat;lon;timestamp;P1;durP1;ratioP1;P2;durP2;ratioP2
52786;SDS011;38661;53.152;5.846;2022-11-04T00:01:45;2.20;;;0.60;;
52786;SDS011;38661;53.152;5.846;2022-11-04T00:04:12;2.08;;;0.45;;
52786;SDS011;38661;53.152;5.846;2022-11-04T00:06:39;2.22;;;0.73;;
52786;SDS011;38661;53.152;5.846;2022-11-04T00:09:07;2.20;;;0.52;;
52786;SDS011;38661;53.152;5.846;2022-11-04T00:11:34;3.90;;;0.50;;
52786;SDS011;38661;53.152;5.846;2022-11-04T00:14:19;1.73;;;0.60;;
52786;SDS011;38661;53.152;5.846;2022-11-04T00:16:45;3.25;;;0.85;;
52786;SDS011;38661;53.152;5.846;2022-11-04T00:19:29;1.75;;;0.40;;
52786;SDS011;38661;53.152;5.846;2022-11-04T00:22:18;2.90;;;0.75;;
52786;SDS011;38661;53.152;5.846;2022-11-04T00:27:46;0.82;;;0.30;;
52786;SDS011;38661;53.152;5.846;2022-11-04T00:30:31;2.42;;;0.40;;
52786;SDS011;38661;53.152;5.846;2022-11-04T00:32:56;4.10;;;0.70;;
52786;SDS011;38661;53.152;5.846;2022-11-04T00:35:46;6.47;;;0.82;;
52786;SDS011;38661;53.152;5.846;2022-11-04T00:38:13;3.25;;;0.68;;
52786;SDS011;38661;53.152;5.846;2022-11-04T00:40:39;1.55;;;0.40;;
52786;SDS011;38661;53.152;5.846;2022-11-04T00:43:04;2.25;;;0.60;;
52786;SDS011;38661;53.152;5.846;2022-11-04T00:45:30;5.20;;;0.70;;
52786;SDS011;38661;53.152;5.846;2022-11-04T00:47:55;3.28;;;0.70;;
52786;SDS011;38661;53.152;5.846;2022-11-04T00:50:21;5.70;;;0.60;;
52786;SDS011;38661;53.152;5.846;2022-11-04T00:52:47;6.75;;;1.60;;
52786;SDS011;38661;53.152;5.846;2022-11-04T00:55:12;6.22;;;1.40;;
52786;SDS011;38661;53.152;5.846;2022-11-04T00:57:38;6.38;;;1.02;;
52786;SDS011;38661;53.152;5.846;2022-11-04T01:00:04;14.95;;;2.53;;
52786;SDS011;38661;53.152;5.846;2022-11-04T01:02:30;7.45;;;1.20;;
52786;SDS011;38661;53.152;5.846;2022-11-04T01:04:55;5.95;;;1.08;;
52786;SDS011;38661;53.152;5.846;2022-11-04T01:07:21;5.03;;;0.85;;
52786;SDS011;38661;53.152;5.846;2022-11-04T01:09:47;6.25;;;1.10;;
52786;SDS011;38661;53.152;5.846;2022-11-04T01:12:13;6.82;;;1.13;;
52786;SDS011;38661;53.152;5.846;2022-11-04T01:14:39;10.88;;;1.73;;
52786;SDS011;38661;53.152;5.846;2022-11-04T01:17:04;7.47;;;1.20;;
52786;SDS011;38661;53.152;5.846;2022-11-04T01:19:31;3.05;;;0.80;;
52786;SDS011;38661;53.152;5.846;2022-11-04T01:21:56;2.97;;;0.98;;
52786;SDS011;38661;53.152;5.846;2022-11-04T01:24:22;7.30;;;0.80;;
52786;SDS011;38661;53.152;5.846;2022-11-04T01:26:48;4.50;;;1.15;;
52786;SDS011;38661;53.152;5.846;2022-11-04T01:29:13;5.20;;;0.93;;
52786;SDS011;38661;53.152;5.846;2022-11-04T01:31:39;5.90;;;0.80;;
52786;SDS011;38661;53.152;5.846;2022-11-04T01:34:05;5.20;;;0.80;;
52786;SDS011;38661;53.152;5.846;2022-11-04T01:36:30;3.78;;;0.55;;
52786;SDS011;38661;53.152;5.846;2022-11-04T01:38:56;6.78;;;1.25;;
52786;SDS011;38661;53.152;5.846;2022-11-04T01:41:26;3.65;;;0.70;;
52786;SDS011;38661;53.152;5.846;2022-11-04T01:46:28;6.40;;;1.33;;
52786;SDS011;38661;53.152;5.846;2022-11-04T01:48:57;6.43;;;0.73;;
52786;SDS011;38661;53.152;5.846;2022-11-04T01:51:31;3.10;;;0.88;;
52786;SDS011;38661;53.152;5.846;2022-11-04T01:53:58;2.88;;;0.68;;
52786;SDS011;38661;53.152;5.846;2022-11-04T01:56:24;5.75;;;1.42;;
52786;SDS011;38661;53.152;5.846;2022-11-04T01:58:52;4.88;;;1.02;;
52786;SDS011;38661;53.152;5.846;2022-11-04T02:01:21;4.20;;;0.70;;
52786;SDS011;38661;53.152;5.846;2022-11-04T02:03:52;8.27;;;1.48;;
52786;SDS011;38661;53.152;5.846;2022-11-04T02:06:41;6.25;;;1.13;;
52786;SDS011;38661;53.152;5.846;2022-11-04T02:09:07;9.88;;;1.10;;
52786;SDS011;38661;53.152;5.846;2022-11-04T02:11:32;7.07;;;0.93;;
52786;SDS011;38661;53.152;5.846;2022-11-04T02:14:18;7.35;;;1.52;;
52786;SDS011;38661;53.152;5.846;2022-11-04T02:16:44;3.80;;;0.70;;
52786;SDS011;38661;53.152;5.846;2022-11-04T02:19:29;3.63;;;0.80;;
52786;SDS011;38661;53.152;5.846;2022-11-04T02:31:13;6.30;;;1.00;;
52786;SDS011;38661;53.152;5.846;2022-11-04T02:34:26;4.13;;;0.80;;
52786;SDS011;38661;53.152;5.846;2022-11-04T02:36:51;4.50;;;0.80;;
52786;SDS011;38661;53.152;5.846;2022-11-04T02:40:20;6.18;;;0.77;;
52786;SDS011;38661;53.152;5.846;2022-11-04T02:45:32;5.03;;;1.00;;
52786;SDS011;38661;53.152;5.846;2022-11-04T02:48:08;4.37;;;1.10;;
52786;SDS011;38661;53.152;5.846;2022-11-04T02:50:40;7.00;;;1.08;;
52786;SDS011;38661;53.152;5.846;2022-11-04T02:53:20;7.05;;;2.60;;
52786;SDS011;38661;53.152;5.846;2022-11-04T02:55:53;5.43;;;1.20;;
52786;SDS011;38661;53.152;5.846;2022-11-04T02:58:26;6.18;;;1.20;;
52786;SDS011;38661;53.152;5.846;2022-11-04T03:00:57;5.78;;;1.02;;
52786;SDS011;38661;53.152;5.846;2022-11-04T03:03:25;10.02;;;1.63;;
52786;SDS011;38661;53.152;5.846;2022-11-04T03:05:56;4.32;;;1.10;;
52786;SDS011;38661;53.152;5.846;2022-11-04T03:08:32;6.93;;;1.58;;
52786;SDS011;38661;53.152;5.846;2022-11-04T03:11:05;4.47;;;0.70;;
52786;SDS011;38661;53.152;5.846;2022-11-04T03:13:38;4.63;;;0.73;;
52786;SDS011;38661;53.152;5.846;2022-11-04T03:16:26;3.05;;;1.00;;
52786;SDS011;38661;53.152;5.846;2022-11-04T03:21:38;3.25;;;0.70;;
52786;SDS011;38661;53.152;5.846;2022-11-04T03:24:10;4.63;;;0.82;;
52786;SDS011;38661;53.152;5.846;2022-11-04T03:26:40;4.53;;;0.80;;
52786;SDS011;38661;53.152;5.846;2022-11-04T03:29:25;3.63;;;0.80;;
52786;SDS011;38661;53.152;5.846;2022-11-04T03:32:22;5.78;;;0.90;;
52786;SDS011;38661;53.152;5.846;2022-11-04T03:34:55;4.03;;;0.70;;
52786;SDS011;38661;53.152;5.846;2022-11-04T03:37:21;2.30;;;1.30;;
52786;SDS011;38661;53.152;5.846;2022-11-04T03:39:47;5.75;;;0.95;;
52786;SDS011;38661;53.152;5.846;2022-11-04T03:42:13;3.53;;;0.60;;
52786;SDS011;38661;53.152;5.846;2022-11-04T03:44:47;7.82;;;1.00;;
52786;SDS011;38661;53.152;5.846;2022-11-04T03:47:18;2.33;;;0.60;;
52786;SDS011;38661;53.152;5.846;2022-11-04T03:49:48;7.22;;;1.00;;
52786;SDS011;38661;53.152;5.846;2022-11-04T03:52:17;2.65;;;0.98;;
52786;SDS011;38661;53.152;5.846;2022-11-04T03:54:44;2.35;;;0.57;;
52786;SDS011;38661;53.152;5.846;2022-11-04T04:02:36;1.77;;;0.77;;
52786;SDS011;38661;53.152;5.846;2022-11-04T04:13:47;4.00;;;0.77;;
52786;SDS011;38661;53.152;5.846;2022-11-04T04:16:36;6.28;;;0.77;;
52786;SDS011;38661;53.152;5.846;2022-11-04T04:19:10;4.03;;;1.25;;
52786;SDS011;38661;53.152;5.846;2022-11-04T04:22:00;3.65;;;0.90;;
52786;SDS011;38661;53.152;5.846;2022-11-04T04:24:33;4.28;;;1.00;;
52786;SDS011;38661;53.152;5.846;2022-11-04T04:27:20;4.72;;;1.88;;
52786;SDS011;38661;53.152;5.846;2022-11-04T04:29:57;3.42;;;1.00;;
52786;SDS011;38661;53.152;5.846;2022-11-04T04:32:24;6.55;;;1.10;;
52786;SDS011;38661;53.152;5.846;2022-11-04T04:34:53;3.50;;;1.10;;
52786;SDS011;38661;53.152;5.846;2022-11-04T04:37:39;4.38;;;1.67;;
52786;SDS011;38661;53.152;5.846;2022-11-04T04:40:07;5.57;;;1.10;;
52786;SDS011;38661;53.152;5.846;2022-11-04T04:42:54;6.13;;;0.70;;
52786;SDS011;38661;53.152;5.846;2022-11-04T04:45:40;3.65;;;0.98;;
52786;SDS011;38661;53.152;5.846;2022-11-04T04:48:08;8.35;;;1.33;;
52786;SDS011;38661;53.152;5.846;2022-11-04T04:50:41;5.28;;;1.17;;
52786;SDS011;38661;53.152;5.846;2022-11-04T04:53:12;3.70;;;1.10;;
52786;SDS011;38661;53.152;5.846;2022-11-04T04:55:38;4.90;;;1.25;;
52786;SDS011;38661;53.152;5.846;2022-11-04T04:58:04;3.72;;;0.90;;
52786;SDS011;38661;53.152;5.846;2022-11-04T05:00:30;7.03;;;2.22;;
52786;SDS011;38661;53.152;5.846;2022-11-04T05:02:57;2.95;;;0.60;;
52786;SDS011;38661;53.152;5.846;2022-11-04T05:05:23;5.03;;;1.17;;
52786;SDS011;38661;53.152;5.846;2022-11-04T05:07:48;3.17;;;0.65;;
52786;SDS011;38661;53.152;5.846;2022-11-04T05:10:14;5.10;;;0.70;;
52786;SDS011;38661;53.152;5.846;2022-11-04T05:12:41;3.63;;;0.77;;
52786;SDS011;38661;53.152;5.846;2022-11-04T05:15:25;4.80;;;0.75;;
52786;SDS011;38661;53.152;5.846;2022-11-04T05:17:53;4.07;;;0.80;;
52786;SDS011;38661;53.152;5.846;2022-11-04T05:20:19;5.50;;;1.40;;
52786;SDS011;38661;53.152;5.846;2022-11-04T05:22:45;3.50;;;1.00;;
52786;SDS011;38661;53.152;5.846;2022-11-04T05:25:11;4.55;;;1.02;;
52786;SDS011;38661;53.152;5.846;2022-11-04T05:27:36;4.90;;;0.93;;
52786;SDS011;38661;53.152;5.846;2022-11-04T05:30:02;5.32;;;0.88;;
52786;SDS011;38661;53.152;5.846;2022-11-04T05:32:29;7.53;;;2.00;;
52786;SDS011;38661;53.152;5.846;2022-11-04T05:34:57;11.00;;;1.60;;
52786;SDS011;38661;53.152;5.846;2022-11-04T05:37:23;3.17;;;1.23;;
52786;SDS011;38661;53.152;5.846;2022-11-04T05:39:50;3.47;;;1.27;;
52786;SDS011;38661;53.152;5.846;2022-11-04T05:42:15;4.47;;;1.55;;
52786;SDS011;38661;53.152;5.846;2022-11-04T05:44:41;5.40;;;1.73;;
52786;SDS011;38661;53.152;5.846;2022-11-04T05:47:07;7.13;;;1.20;;
52786;SDS011;38661;53.152;5.846;2022-11-04T05:49:33;3.85;;;1.08;;
52786;SDS011;38661;53.152;5.846;2022-11-04T05:51:59;6.32;;;1.20;;
52786;SDS011;38661;53.152;5.846;2022-11-04T05:54:24;2.92;;;1.00;;
52786;SDS011;38661;53.152;5.846;2022-11-04T05:56:50;5.43;;;1.20;;
52786;SDS011;38661;53.152;5.846;2022-11-04T05:59:16;4.82;;;0.98;;
52786;SDS011;38661;53.152;5.846;2022-11-04T06:01:42;4.63;;;1.13;;
52786;SDS011;38661;53.152;5.846;2022-11-04T06:04:12;6.97;;;1.20;;
52786;SDS011;38661;53.152;5.846;2022-11-04T06:06:39;4.85;;;1.33;;
52786;SDS011;38661;53.152;5.846;2022-11-04T06:09:05;4.35;;;1.25;;
52786;SDS011;38661;53.152;5.846;2022-11-04T06:11:31;3.42;;;1.20;;
52786;SDS011;38661;53.152;5.846;2022-11-04T06:13:58;6.35;;;1.25;;
52786;SDS011;38661;53.152;5.846;2022-11-04T06:16:24;4.68;;;1.40;;
52786;SDS011;38661;53.152;5.846;2022-11-04T06:18:50;4.50;;;1.30;;
52786;SDS011;38661;53.152;5.846;2022-11-04T06:23:49;7.70;;;1.63;;
52786;SDS011;38661;53.152;5.846;2022-11-04T06:26:15;5.15;;;1.30;;
52786;SDS011;38661;53.152;5.846;2022-11-04T06:28:41;4.32;;;1.42;;
52786;SDS011;38661;53.152;5.846;2022-11-04T06:31:08;5.90;;;1.45;;
52786;SDS011;38661;53.152;5.846;2022-11-04T06:33:35;5.38;;;1.65;;
52786;SDS011;38661;53.152;5.846;2022-11-04T06:36:01;4.85;;;1.50;;
52786;SDS011;38661;53.152;5.846;2022-11-04T06:38:29;5.53;;;1.45;;
52786;SDS011;38661;53.152;5.846;2022-11-04T06:40:56;5.03;;;1.60;;
52786;SDS011;38661;53.152;5.846;2022-11-04T06:43:22;7.57;;;1.30;;
52786;SDS011;38661;53.152;5.846;2022-11-04T06:45:55;6.47;;;2.35;;
52786;SDS011;38661;53.152;5.846;2022-11-04T06:48:23;9.63;;;3.00;;
52786;SDS011;38661;53.152;5.846;2022-11-04T06:50:49;6.22;;;1.80;;
52786;SDS011;38661;53.152;5.846;2022-11-04T06:53:15;9.13;;;2.72;;
52786;SDS011;38661;53.152;5.846;2022-11-04T06:55:40;4.93;;;2.08;;
52786;SDS011;38661;53.152;5.846;2022-11-04T06:58:06;7.72;;;2.08;;
52786;SDS011;38661;53.152;5.846;2022-11-04T07:00:32;5.95;;;1.88;;
52786;SDS011;38661;53.152;5.846;2022-11-04T07:02:58;6.18;;;1.50;;
52786;SDS011;38661;53.152;5.846;2022-11-04T07:05:23;6.55;;;2.25;;
52786;SDS011;38661;53.152;5.846;2022-11-04T07:07:49;7.95;;;2.10;;
52786;SDS011;38661;53.152;5.846;2022-11-04T07:10:15;3.22;;;1.05;;
52786;SDS011;38661;53.152;5.846;2022-11-04T07:12:41;11.30;;;2.42;;
52786;SDS011;38661;53.152;5.846;2022-11-04T07:15:07;5.95;;;1.30;;
52786;SDS011;38661;53.152;5.846;2022-11-04T07:17:33;7.55;;;1.48;;
52786;SDS011;38661;53.152;5.846;2022-11-04T07:19:59;5.60;;;1.77;;
52786;SDS011;38661;53.152;5.846;2022-11-04T07:22:24;4.68;;;1.50;;
52786;SDS011;38661;53.152;5.846;2022-11-04T07:24:50;3.95;;;1.70;;
52786;SDS011;38661;53.152;5.846;2022-11-04T07:27:16;3.00;;;1.30;;
52786;SDS011;38661;53.152;5.846;2022-11-04T07:29:41;4.18;;;1.35;;
52786;SDS011;38661;53.152;5.846;2022-11-04T07:32:07;5.60;;;1.42;;
52786;SDS011;38661;53.152;5.846;2022-11-04T07:34:33;5.13;;;1.50;;
52786;SDS011;38661;53.152;5.846;2022-11-04T07:36:59;4.88;;;1.42;;
52786;SDS011;38661;53.152;5.846;2022-11-04T07:39:24;6.43;;;1.73;;
52786;SDS011;38661;53.152;5.846;2022-11-04T07:41:50;5.10;;;1.67;;
52786;SDS011;38661;53.152;5.846;2022-11-04T07:44:16;7.28;;;2.10;;
52786;SDS011;38661;53.152;5.846;2022-11-04T07:46:41;23.20;;;4.03;;
52786;SDS011;38661;53.152;5.846;2022-11-04T07:49:07;11.23;;;1.85;;
52786;SDS011;38661;53.152;5.846;2022-11-04T07:51:33;3.80;;;1.50;;
52786;SDS011;38661;53.152;5.846;2022-11-04T07:53:58;4.68;;;1.90;;
52786;SDS011;38661;53.152;5.846;2022-11-04T07:56:25;8.65;;;2.50;;
52786;SDS011;38661;53.152;5.846;2022-11-04T07:58:51;6.38;;;2.42;;
52786;SDS011;38661;53.152;5.846;2022-11-04T08:01:18;4.55;;;1.83;;
52786;SDS011;38661;53.152;5.846;2022-11-04T08:03:47;8.88;;;2.15;;
52786;SDS011;38661;53.152;5.846;2022-11-04T08:06:14;5.35;;;1.77;;
52786;SDS011;38661;53.152;5.846;2022-11-04T08:08:40;9.80;;;2.67;;
52786;SDS011;38661;53.152;5.846;2022-11-04T08:14:59;4.28;;;2.83;;
52786;SDS011;38661;53.152;5.846;2022-11-04T08:17:25;7.30;;;2.55;;
52786;SDS011;38661;53.152;5.846;2022-11-04T08:19:51;5.32;;;2.33;;
52786;SDS011;38661;53.152;5.846;2022-11-04T08:22:17;6.03;;;2.10;;
52786;SDS011;38661;53.152;5.846;2022-11-04T08:24:43;4.93;;;2.00;;
52786;SDS011;38661;53.152;5.846;2022-11-04T08:27:11;4.75;;;2.50;;
52786;SDS011;38661;53.152;5.846;2022-11-04T08:29:37;6.38;;;3.00;;
52786;SDS011;38661;53.152;5.846;2022-11-04T08:32:03;5.93;;;2.40;;
52786;SDS011;38661;53.152;5.846;2022-11-04T08:34:29;4.40;;;1.58;;
52786;SDS011;38661;53.152;5.846;2022-11-04T08:36:55;4.47;;;1.67;;
52786;SDS011;38661;53.152;5.846;2022-11-04T08:39:21;6.53;;;1.40;;
52786;SDS011;38661;53.152;5.846;2022-11-04T08:41:48;3.85;;;1.17;;
52786;SDS011;38661;53.152;5.846;2022-11-04T08:44:15;3.70;;;1.45;;
52786;SDS011;38661;53.152;5.846;2022-11-04T08:46:42;4.38;;;1.50;;
52786;SDS011;38661;53.152;5.846;2022-11-04T08:49:08;4.03;;;1.77;;
52786;SDS011;38661;53.152;5.846;2022-11-04T08:51:35;5.10;;;1.60;;
52786;SDS011;38661;53.152;5.846;2022-11-04T08:54:04;4.88;;;1.35;;
52786;SDS011;38661;53.152;5.846;2022-11-04T08:56:31;2.45;;;1.52;;
52786;SDS011;38661;53.152;5.846;2022-11-04T08:58:59;5.35;;;1.05;;
52786;SDS011;38661;53.152;5.846;2022-11-04T09:01:27;4.97;;;1.17;;
52786;SDS011;38661;53.152;5.846;2022-11-04T09:03:53;3.90;;;1.23;;
52786;SDS011;38661;53.152;5.846;2022-11-04T09:06:27;4.32;;;1.35;;
52786;SDS011;38661;53.152;5.846;2022-11-04T09:08:54;3.78;;;1.60;;
52786;SDS011;38661;53.152;5.846;2022-11-04T09:11:22;4.75;;;0.98;;
52786;SDS011;38661;53.152;5.846;2022-11-04T09:13:48;5.15;;;1.45;;
52786;SDS011;38661;53.152;5.846;2022-11-04T09:16:14;5.63;;;1.40;;
52786;SDS011;38661;53.152;5.846;2022-11-04T09:18:40;4.60;;;1.67;;
52786;SDS011;38661;53.152;5.846;2022-11-04T09:21:06;4.50;;;1.17;;
52786;SDS011;38661;53.152;5.846;2022-11-04T09:23:33;3.83;;;1.25;;
52786;SDS011;38661;53.152;5.846;2022-11-04T09:26:07;3.10;;;1.40;;
52786;SDS011;38661;53.152;5.846;2022-11-04T09:28:36;9.73;;;1.70;;
52786;SDS011;38661;53.152;5.846;2022-11-04T09:31:10;3.97;;;1.23;;
52786;SDS011;38661;53.152;5.846;2022-11-04T09:33:37;5.60;;;1.65;;
52786;SDS011;38661;53.152;5.846;2022-11-04T09:36:03;4.50;;;1.55;;
52786;SDS011;38661;53.152;5.846;2022-11-04T09:38:29;5.65;;;1.70;;
52786;SDS011;38661;53.152;5.846;2022-11-04T09:40:55;5.68;;;1.85;;
52786;SDS011;38661;53.152;5.846;2022-11-04T09:46:27;5.28;;;2.08;;
52786;SDS011;38661;53.152;5.846;2022-11-04T09:48:57;4.10;;;1.90;;
52786;SDS011;38661;53.152;5.846;2022-11-04T09:51:26;5.82;;;2.30;;
52786;SDS011;38661;53.152;5.846;2022-11-04T09:54:00;4.65;;;1.30;;
52786;SDS011;38661;53.152;5.846;2022-11-04T09:56:36;5.72;;;1.45;;
52786;SDS011;38661;53.152;5.846;2022-11-04T09:59:08;9.50;;;2.78;;
52786;SDS011;38661;53.152;5.846;2022-11-04T10:01:41;5.72;;;0.90;;
52786;SDS011;38661;53.152;5.846;2022-11-04T10:10:05;5.43;;;1.60;;
52786;SDS011;38661;53.152;5.846;2022-11-04T10:21:31;6.63;;;1.42;;
52786;SDS011;38661;53.152;5.846;2022-11-04T10:27:04;4.95;;;1.77;;
52786;SDS011;38661;53.152;5.846;2022-11-04T10:29:42;6.47;;;1.70;;
52786;SDS011;38661;53.152;5.846;2022-11-04T10:34:52;9.25;;;1.67;;
52786;SDS011;38661;53.152;5.846;2022-11-04T10:37:23;7.70;;;2.00;;
52786;SDS011;38661;53.152;5.846;2022-11-04T10:39:50;12.07;;;3.58;;
52786;SDS011;38661;53.152;5.846;2022-11-04T10:42:21;6.13;;;1.92;;
52786;SDS011;38661;53.152;5.846;2022-11-04T10:44:47;7.38;;;1.92;;
52786;SDS011;38661;53.152;5.846;2022-11-04T10:47:17;7.63;;;2.10;;
52786;SDS011;38661;53.152;5.846;2022-11-04T10:52:13;4.22;;;1.30;;
52786;SDS011;38661;53.152;5.846;2022-11-04T10:54:41;4.72;;;1.38;;
52786;SDS011;38661;53.152;5.846;2022-11-04T10:57:09;8.18;;;2.10;;
52786;SDS011;38661;53.152;5.846;2022-11-04T10:59:56;6.00;;;1.92;;
52786;SDS011;38661;53.152;5.846;2022-11-04T11:07:56;5.32;;;1.25;;
52786;SDS011;38661;53.152;5.846;2022-11-04T11:10:23;4.28;;;1.58;;
52786;SDS011;38661;53.152;5.846;2022-11-04T11:13:01;5.68;;;1.40;;
52786;SDS011;38661;53.152;5.846;2022-11-04T11:15:37;4.88;;;1.10;;
52786;SDS011;38661;53.152;5.846;2022-11-04T11:20:31;5.07;;;1.70;;
52786;SDS011;38661;53.152;5.846;2022-11-04T11:22:58;6.55;;;1.90;;
52786;SDS011;38661;53.152;5.846;2022-11-04T11:27:55;3.60;;;1.33;;
52786;SDS011;38661;53.152;5.846;2022-11-04T11:30:30;5.47;;;1.90;;
52786;SDS011;38661;53.152;5.846;2022-11-04T11:32:59;6.57;;;1.55;;
52786;SDS011;38661;53.152;5.846;2022-11-04T11:35:38;8.70;;;1.73;;
52786;SDS011;38661;53.152;5.846;2022-11-04T11:38:22;6.43;;;1.58;;
52786;SDS011;38661;53.152;5.846;2022-11-04T11:41:14;6.53;;;2.35;;
52786;SDS011;38661;53.152;5.846;2022-11-04T11:43:49;9.02;;;1.80;;
52786;SDS011;38661;53.152;5.846;2022-11-04T11:46:23;6.63;;;1.63;;
52786;SDS011;38661;53.152;5.846;2022-11-04T11:48:53;7.07;;;1.27;;
52786;SDS011;38661;53.152;5.846;2022-11-04T11:51:26;9.07;;;2.33;;
52786;SDS011;38661;53.152;5.846;2022-11-04T11:54:41;7.47;;;1.65;;
52786;SDS011;38661;53.152;5.846;2022-11-04T11:57:02;5.15;;;1.70;;
52786;SDS011;38661;53.152;5.846;2022-11-04T12:02:19;6.03;;;1.13;;
52786;SDS011;38661;53.152;5.846;2022-11-04T12:05:00;6.97;;;1.38;;
52786;SDS011;38661;53.152;5.846;2022-11-04T12:10:35;5.75;;;1.60;;
52786;SDS011;38661;53.152;5.846;2022-11-04T12:15:49;5.95;;;1.60;;
52786;SDS011;38661;53.152;5.846;2022-11-04T12:23:40;6.75;;;1.77;;
52786;SDS011;38661;53.152;5.846;2022-11-04T12:26:15;7.43;;;1.77;;
52786;SDS011;38661;53.152;5.846;2022-11-04T12:40:17;9.38;;;1.92;;
52786;SDS011;38661;53.152;5.846;2022-11-04T12:48:29;8.35;;;2.20;;
52786;SDS011;38661;53.152;5.846;2022-11-04T12:56:18;10.35;;;2.28;;
52786;SDS011;38661;53.152;5.846;2022-11-04T13:01:29;7.97;;;1.75;;
52786;SDS011;38661;53.152;5.846;2022-11-04T13:04:13;7.10;;;1.55;;
52786;SDS011;38661;53.152;5.846;2022-11-04T13:06:45;5.18;;;1.42;;
52786;SDS011;38661;53.152;5.846;2022-11-04T13:09:30;7.95;;;1.88;;
52786;SDS011;38661;53.152;5.846;2022-11-04T13:12:04;10.45;;;1.73;;
52786;SDS011;38661;53.152;5.846;2022-11-04T13:14:43;7.55;;;1.65;;
52786;SDS011;38661;53.152;5.846;2022-11-04T13:17:18;4.80;;;1.20;;
52786;SDS011;38661;53.152;5.846;2022-11-04T13:20:01;7.30;;;1.55;;
52786;SDS011;38661;53.152;5.846;2022-11-04T13:22:50;6.75;;;2.60;;
52786;SDS011;38661;53.152;5.846;2022-11-04T13:25:28;5.80;;;1.50;;
52786;SDS011;38661;53.152;5.846;2022-11-04T13:28:09;5.13;;;1.50;;
52786;SDS011;38661;53.152;5.846;2022-11-04T13:36:44;3.60;;;1.27;;
52786;SDS011;38661;53.152;5.846;2022-11-04T13:39:18;7.45;;;1.55;;
52786;SDS011;38661;53.152;5.846;2022-11-04T13:44:45;6.80;;;1.63;;
52786;SDS011;38661;53.152;5.846;2022-11-04T13:47:16;6.90;;;1.45;;
52786;SDS011;38661;53.152;5.846;2022-11-04T13:49:52;5.22;;;1.30;;
52786;SDS011;38661;53.152;5.846;2022-11-04T13:52:23;5.68;;;1.15;;
52786;SDS011;38661;53.152;5.846;2022-11-04T13:57:26;9.80;;;2.05;;
52786;SDS011;38661;53.152;5.846;2022-11-04T14:18:42;5.75;;;1.65;;
52786;SDS011;38661;53.152;5.846;2022-11-04T14:21:13;7.85;;;1.75;;
52786;SDS011;38661;53.152;5.846;2022-11-04T14:23:42;6.22;;;1.60;;
52786;SDS011;38661;53.152;5.846;2022-11-04T14:26:12;6.82;;;1.67;;
52786;SDS011;38661;53.152;5.846;2022-11-04T14:28:43;7.03;;;1.30;;
52786;SDS011;38661;53.152;5.846;2022-11-04T14:31:12;5.88;;;1.63;;
52786;SDS011;38661;53.152;5.846;2022-11-04T14:33:57;5.43;;;1.05;;
52786;SDS011;38661;53.152;5.846;2022-11-04T14:36:36;10.43;;;3.13;;
52786;SDS011;38661;53.152;5.846;2022-11-04T14:44:12;9.77;;;2.47;;
52786;SDS011;38661;53.152;5.846;2022-11-04T14:47:33;5.38;;;0.95;;
52786;SDS011;38661;53.152;5.846;2022-11-04T14:52:46;9.82;;;1.75;;
52786;SDS011;38661;53.152;5.846;2022-11-04T14:55:24;9.13;;;1.80;;
52786;SDS011;38661;53.152;5.846;2022-11-04T14:57:55;7.03;;;1.83;;
52786;SDS011;38661;53.152;5.846;2022-11-04T15:03:03;9.75;;;1.77;;
52786;SDS011;38661;53.152;5.846;2022-11-04T15:05:39;6.43;;;1.50;;
52786;SDS011;38661;53.152;5.846;2022-11-04T15:13:42;6.50;;;2.58;;
52786;SDS011;38661;53.152;5.846;2022-11-04T15:16:20;9.93;;;2.10;;
52786;SDS011;38661;53.152;5.846;2022-11-04T15:18:52;12.80;;;2.47;;
52786;SDS011;38661;53.152;5.846;2022-11-04T15:21:20;10.95;;;2.42;;
52786;SDS011;38661;53.152;5.846;2022-11-04T15:23:50;10.93;;;2.45;;
52786;SDS011;38661;53.152;5.846;2022-11-04T15:26:29;7.03;;;1.95;;
52786;SDS011;38661;53.152;5.846;2022-11-04T15:29:02;9.23;;;1.88;;
52786;SDS011;38661;53.152;5.846;2022-11-04T15:31:33;12.30;;;1.58;;
52786;SDS011;38661;53.152;5.846;2022-11-04T15:34:04;9.43;;;2.47;;
52786;SDS011;38661;53.152;5.846;2022-11-04T15:36:35;10.60;;;1.75;;
52786;SDS011;38661;53.152;5.846;2022-11-04T15:41:37;15.98;;;1.92;;
52786;SDS011;38661;53.152;5.846;2022-11-04T15:44:23;7.25;;;2.00;;
52786;SDS011;38661;53.152;5.846;2022-11-04T15:46:52;9.93;;;2.22;;
52786;SDS011;38661;53.152;5.846;2022-11-04T15:51:56;7.07;;;1.77;;
52786;SDS011;38661;53.152;5.846;2022-11-04T15:54:39;8.30;;;1.95;;
52786;SDS011;38661;53.152;5.846;2022-11-04T16:05:29;10.43;;;2.50;;
52786;SDS011;38661;53.152;5.846;2022-11-04T16:10:46;9.07;;;1.60;;
52786;SDS011;38661;53.152;5.846;2022-11-04T16:15:41;9.45;;;1.65;;
52786;SDS011;38661;53.152;5.846;2022-11-04T16:18:33;10.05;;;2.15;;
52786;SDS011;38661;53.152;5.846;2022-11-04T16:23:29;10.45;;;3.30;;
52786;SDS011;38661;53.152;5.846;2022-11-04T16:25:59;9.60;;;3.20;;
52786;SDS011;38661;53.152;5.846;2022-11-04T16:28:28;12.90;;;5.35;;
52786;SDS011;38661;53.152;5.846;2022-11-04T16:31:00;15.80;;;6.10;;
52786;SDS011;38661;53.152;5.846;2022-11-04T16:33:28;16.73;;;7.85;;
52786;SDS011;38661;53.152;5.846;2022-11-04T16:35:54;15.55;;;6.20;;
52786;SDS011;38661;53.152;5.846;2022-11-04T16:38:20;14.65;;;6.55;;
52786;SDS011;38661;53.152;5.846;2022-11-04T16:40:46;20.95;;;8.25;;
52786;SDS011;38661;53.152;5.846;2022-11-04T16:43:13;17.70;;;7.75;;
52786;SDS011;38661;53.152;5.846;2022-11-04T16:45:43;15.07;;;7.03;;
52786;SDS011;38661;53.152;5.846;2022-11-04T16:48:18;14.90;;;5.13;;
52786;SDS011;38661;53.152;5.846;2022-11-04T16:50:45;10.27;;;4.18;;
52786;SDS011;38661;53.152;5.846;2022-11-04T16:53:11;8.50;;;2.85;;
52786;SDS011;38661;53.152;5.846;2022-11-04T16:55:41;7.13;;;2.67;;
52786;SDS011;38661;53.152;5.846;2022-11-04T16:58:09;11.55;;;3.03;;
52786;SDS011;38661;53.152;5.846;2022-11-04T17:00:42;13.75;;;4.47;;
52786;SDS011;38661;53.152;5.846;2022-11-04T17:03:18;11.57;;;4.13;;
52786;SDS011;38661;53.152;5.846;2022-11-04T17:05:48;14.85;;;3.15;;
52786;SDS011;38661;53.152;5.846;2022-11-04T17:08:20;11.68;;;3.97;;
52786;SDS011;38661;53.152;5.846;2022-11-04T17:10:46;13.90;;;4.10;;
52786;SDS011;38661;53.152;5.846;2022-11-04T17:13:12;7.93;;;3.35;;
52786;SDS011;38661;53.152;5.846;2022-11-04T17:15:38;10.65;;;3.50;;
52786;SDS011;38661;53.152;5.846;2022-11-04T17:18:05;9.15;;;3.13;;
52786;SDS011;38661;53.152;5.846;2022-11-04T17:20:31;7.38;;;2.72;;
52786;SDS011;38661;53.152;5.846;2022-11-04T17:22:57;11.18;;;2.53;;
52786;SDS011;38661;53.152;5.846;2022-11-04T17:25:25;8.45;;;2.90;;
52786;SDS011;38661;53.152;5.846;2022-11-04T17:27:52;11.30;;;2.88;;
52786;SDS011;38661;53.152;5.846;2022-11-04T17:30:18;9.32;;;2.28;;
52786;SDS011;38661;53.152;5.846;2022-11-04T17:32:46;9.75;;;2.75;;
52786;SDS011;38661;53.152;5.846;2022-11-04T17:35:13;8.38;;;2.95;;
52786;SDS011;38661;53.152;5.846;2022-11-04T17:37:39;10.57;;;2.55;;
52786;SDS011;38661;53.152;5.846;2022-11-04T17:40:05;8.15;;;2.05;;
52786;SDS011;38661;53.152;5.846;2022-11-04T17:42:32;6.68;;;2.03;;
52786;SDS011;38661;53.152;5.846;2022-11-04T17:45:16;9.52;;;3.03;;
52786;SDS011;38661;53.152;5.846;2022-11-04T17:47:42;10.63;;;4.00;;
52786;SDS011;38661;53.152;5.846;2022-11-04T17:50:08;13.48;;;4.70;;
52786;SDS011;38661;53.152;5.846;2022-11-04T17:52:34;9.48;;;4.47;;
52786;SDS011;38661;53.152;5.846;2022-11-04T17:55:00;9.13;;;4.05;;
52786;SDS011;38661;53.152;5.846;2022-11-04T17:57:26;10.10;;;3.65;;
52786;SDS011;38661;53.152;5.846;2022-11-04T17:59:52;8.73;;;3.45;;
52786;SDS011;38661;53.152;5.846;2022-11-04T18:02:17;8.70;;;3.20;;
52786;SDS011;38661;53.152;5.846;2022-11-04T18:04:44;8.20;;;3.17;;
52786;SDS011;38661;53.152;5.846;2022-11-04T18:07:10;10.93;;;2.70;;
52786;SDS011;38661;53.152;5.846;2022-11-04T18:09:35;13.23;;;3.50;;